Time;durP1;ratioP1;P1;durP2;ratioP2;P2;SDS_P1;SDS_P2;PMS_P1;PMS_P2;Temp;Humidity;BMP_temperature;BMP_pressure;BME280_temperature;BME280_humidity;BME280_pressure;Samples;Min_cycle;Max_cycle;Signal;HPM_P1;HPM_P2
2022/12/17 13:06:09;;;;;;;9.88;7.25;;;;;;;-2.12;100.00;99334.59;15277426;19;20014;-78
2022/12/17 13:11:40;;;;;;;9.75;7.45;;;;;;;-1.86;100.00;99319.50;15273958;19;20036;-76
2022/12/17 13:17:08;;;;;;;9.48;7.65;;;;;;;-1.51;100.00;99317.22;15286935;19;20115;-77
2022/12/17 13:22:38;;;;;;;9.05;7.28;;;;;;;-1.20;100.00;99323.03;15283007;19;20018;-76
2022/12/17 13:28:02;;;;;;;9.25;6.10;;;;;;;-1.03;100.00;99323.19;15290649;19;20036;-76
2022/12/17 13:33:40;;;;;;;8.60;6.18;;;;;;;-0.73;100.00;99320.13;15295455;19;20531;-77
2022/12/17 13:39:17;;;;;;;7.15;5.93;;;;;;;-0.59;100.00;99321.28;15297777;19;20014;-77
2022/12/17 13:44:52;;;;;;;9.45;6.75;;;;;;;-0.35;100.00;99325.47;15307079;19;20014;-77
2022/12/17 13:50:24;;;;;;;8.02;5.88;;;;;;;-0.25;100.00;99328.59;15305702;19;20367;-77
2022/12/17 13:55:57;;;;;;;8.85;6.28;;;;;;;-0.08;100.00;99338.41;15307263;19;20070;-78
2022/12/17 14:01:24;;;;;;;7.75;6.15;;;;;;;-0.09;100.00;99352.56;15305599;19;20017;-77
2022/12/17 14:06:51;;;;;;;9.30;7.30;;;;;;;0.00;100.00;99356.59;15315958;19;20021;-75
2022/12/17 14:12:24;;;;;;;7.90;6.95;;;;;;;0.15;100.00;99360.31;15337400;19;20381;-78
2022/12/17 14:17:53;;;;;;;7.95;7.15;;;;;;;0.16;100.00;99362.03;15301988;19;20093;-78
2022/12/17 14:23:25;;;;;;;8.02;7.10;;;;;;;-0.13;100.00;99374.81;15300169;19;20711;-78
2022/12/17 14:28:55;;;;;;;7.75;6.45;;;;;;;-0.37;100.00;99368.84;15299823;19;20474;-77
2022/12/17 14:34:19;;;;;;;9.15;6.68;;;;;;;-0.52;100.00;99373.91;15302081;19;20388;-79
2022/12/17 14:39:54;;;;;;;8.10;6.45;;;;;;;-0.93;100.00;99380.06;15304106;19;20011;-78
2022/12/17 14:46:19;;;;;;;9.10;7.03;;;;;;;-1.11;100.00;99384.31;15277688;19;20022;-58
2022/12/17 14:51:33;;;;;;;8.43;7.30;;;;;;;-1.31;100.00;99398.38;15284851;19;20017;-61
2022/12/17 14:57:01;;;;;;;10.07;7.38;;;;;;;-1.59;100.00;99396.81;15290580;19;20370;-58
2022/12/17 15:02:33;;;;;;;9.38;7.78;;;;;;;-1.82;100.00;99402.16;15287649;19;20081;-57
2022/12/17 15:07:58;;;;;;;10.90;8.20;;;;;;;-2.11;100.00;99404.09;15289057;19;20046;-60
2022/12/17 15:13:25;;;;;;;12.10;8.00;;;;;;;-2.29;100.00;99409.13;15284083;19;20094;-59
2022/12/17 15:18:50;;;;;;;11.43;8.35;;;;;;;-2.43;100.00;99412.25;15281621;19;20035;-59
2022/12/17 15:24:21;;;;;;;10.52;7.82;;;;;;;-2.58;100.00;99418.06;15281777;19;20018;-60
2022/12/17 15:29:49;;;;;;;10.73;8.68;;;;;;;-2.71;100.00;99417.66;15285820;19;20043;-57
2022/12/17 15:35:15;;;;;;;11.88;8.82;;;;;;;-2.84;100.00;99423.34;15288879;19;20354;-55
2022/12/17 15:40:40;;;;;;;12.70;9.15;;;;;;;-2.99;100.00;99429.13;15283770;19;20082;-57
2022/12/17 15:46:14;;;;;;;11.60;9.07;;;;;;;-3.16;100.00;99438.47;15277701;19;20007;-59
2022/12/17 15:51:39;;;;;;;11.88;8.63;;;;;;;-3.33;100.00;99431.09;15275180;19;20015;-57
2022/12/17 15:57:04;;;;;;;10.57;8.07;;;;;;;-3.45;100.00;99448.16;15287484;19;20019;-57
2022/12/17 16:02:38;;;;;;;11.07;8.60;;;;;;;-3.60;100.00;99449.47;15288516;19;20019;-56
2022/12/17 16:08:05;;;;;;;11.23;8.30;;;;;;;-3.75;100.00;99455.19;15287218;19;20022;-55
2022/12/17 16:13:30;;;;;;;11.63;8.55;;;;;;;-3.87;100.00;99462.56;15285835;19;20010;-60
2022/12/17 16:18:58;;;;;;;12.40;8.40;;;;;;;-3.97;100.00;99457.63;15284415;19;20369;-58
2022/12/17 16:24:17;;;;;;;13.55;8.27;;;;;;;-4.10;100.00;99464.97;15274994;19;20474;-57
2022/12/17 16:29:42;;;;;;;10.32;7.68;;;;;;;-4.20;100.00;99464.41;15283206;19;20082;-59
2022/12/17 16:35:10;;;;;;;9.45;7.50;;;;;;;-4.25;100.00;99466.28;15282887;19;20015;-57
2022/12/17 16:40:37;;;;;;;10.13;7.53;;;;;;;-4.33;100.00;99477.00;15276959;19;20018;-58
2022/12/17 16:46:08;;;;;;;11.95;8.50;;;;;;;-4.44;100.00;99476.44;15281399;19;20091;-58
2022/12/17 16:51:35;;;;;;;12.02;6.97;;;;;;;-4.51;100.00;99481.00;15269442;19;20041;-57
2022/12/17 16:57:01;;;;;;;11.25;7.68;;;;;;;-4.55;100.00;99487.25;15275420;19;20010;-55
2022/12/17 17:02:25;;;;;;;11.90;7.97;;;;;;;-4.58;100.00;99485.53;15296357;19;20026;-57
2022/12/17 17:07:53;;;;;;;13.48;9.02;;;;;;;-4.62;100.00;99493.56;15295729;19;20830;-54
2022/12/17 17:13:17;;;;;;;11.63;8.30;;;;;;;-4.68;100.00;99499.84;15290658;19;20014;-55
2022/12/17 17:18:43;;;;;;;14.43;8.55;;;;;;;-4.74;100.00;99495.59;15293923;19;20018;-54
2022/12/17 17:24:14;;;;;;;11.90;7.97;;;;;;;-4.84;100.00;99497.59;15288190;19;20475;-59
2022/12/17 17:29:39;;;;;;;11.82;7.85;;;;;;;-4.95;100.00;99502.25;15291476;19;20029;-55
2022/12/17 17:35:04;;;;;;;18.42;12.07;;;;;;;-5.05;100.00;99498.97;15300596;19;20051;-54
2022/12/17 17:40:32;;;;;;;35.63;22.85;;;;;;;-5.07;100.00;99502.56;15294848;19;20017;-56
2022/12/17 17:46:12;;;;;;;14.20;10.60;;;;;;;-5.13;100.00;99511.44;15291610;19;20196;-57
2022/12/17 17:51:40;;;;;;;15.45;9.73;;;;;;;-5.16;100.00;99522.00;15287418;19;20021;-53
2022/12/17 17:57:20;;;;;;;16.13;9.80;;;;;;;-5.19;100.00;99528.22;15283792;19;20010;-56
2022/12/17 18:02:45;;;;;;;17.67;10.38;;;;;;;-5.20;100.00;99533.47;15287980;19;20019;-57
2022/12/17 18:08:10;;;;;;;16.88;10.65;;;;;;;-5.19;100.00;99543.09;15289044;19;20440;-57
2022/12/17 18:19:19;;;;;;;16.02;10.88;;;;;;;-5.26;100.00;99561.63;15289253;19;20531;-55
2022/12/17 18:24:44;;;;;;;15.23;10.50;;;;;;;-5.35;100.00;99556.56;15283380;19;20014;-57
2022/12/17 18:30:15;;;;;;;14.75;9.82;;;;;;;-5.48;100.00;99561.22;15277668;19;20519;-55
2022/12/17 18:35:39;;;;;;;11.75;8.43;;;;;;;-5.60;100.00;99566.72;15280006;19;20006;-55
2022/12/17 18:43:21;;;;;;;14.25;9.15;;;;;;;-5.77;100.00;99564.44;15283558;19;20019;-56
2022/12/17 18:47:02;;;;;;;15.13;10.48;;;;;;;-5.93;100.00;99566.50;15280952;19;20018;-50
2022/12/17 18:52:28;;;;;;;15.63;10.57;;;;;;;-6.02;100.00;99564.09;15277361;19;20021;-53
2022/12/17 18:57:47;;;;;;;15.80;10.23;;;;;;;-6.11;100.00;99586.09;15282774;19;20037;-56
2022/12/17 19:03:15;;;;;;;17.27;11.02;;;;;;;-6.19;100.00;99588.88;15280882;19;20018;-56
2022/12/17 19:08:39;;;;;;;18.08;10.88;;;;;;;-6.24;100.00;99590.72;15287315;19;20082;-53
2022/12/17 19:14:04;;;;;;;20.65;12.32;;;;;;;-6.29;100.00;99596.00;15284616;19;20135;-54
2022/12/17 19:19:31;;;;;;;21.20;12.10;;;;;;;-6.35;100.00;99609.25;15286352;19;20035;-54
2022/12/17 19:24:56;;;;;;;18.95;12.30;;;;;;;-6.43;100.00;99611.16;15287660;19;20728;-56
2022/12/17 19:30:20;;;;;;;23.20;13.77;;;;;;;-6.45;100.00;99629.50;15279540;19;20028;-53
2022/12/17 19:35:48;;;;;;;23.38;13.63;;;;;;;-6.51;100.00;99629.63;15276694;19;20570;-54
2022/12/17 19:41:15;;;;;;;20.92;13.48;;;;;;;-6.52;100.00;99638.38;15279785;19;20031;-54
2022/12/17 19:46:43;;;;;;;23.17;13.80;;;;;;;-6.58;100.00;99639.31;15287144;19;20091;-55
2022/12/17 19:52:10;;;;;;;19.98;12.95;;;;;;;-6.66;100.00;99638.59;15277531;19;20057;-54
2022/12/17 19:57:35;;;;;;;20.92;12.70;;;;;;;-6.66;100.00;99646.44;15285418;19;21025;-57
2022/12/17 20:02:59;;;;;;;19.55;12.43;;;;;;;-6.68;100.00;99648.22;15278902;19;20032;-51
2022/12/17 20:08:34;;;;;;;20.35;11.65;;;;;;;-6.68;100.00;99643.84;15275837;19;20328;-61
2022/12/17 20:14:00;;;;;;;18.30;11.38;;;;;;;-6.69;100.00;99641.25;15258298;19;20018;-54
2022/12/17 20:19:29;;;;;;;18.52;12.10;;;;;;;-6.75;100.00;99634.34;15281936;19;20014;-53
2022/12/17 20:24:57;;;;;;;17.48;10.95;;;;;;;-6.78;100.00;99638.75;15282468;19;20022;-53
2022/12/17 20:30:22;;;;;;;18.27;10.43;;;;;;;-6.84;100.00;99643.19;15279170;19;20403;-55
2022/12/17 20:35:46;;;;;;;18.05;10.88;;;;;;;-6.85;100.00;99646.69;15276717;19;20014;-51
2022/12/17 20:41:19;;;;;;;16.80;10.70;;;;;;;-6.86;100.00;99652.81;15271710;19;20014;-55
2022/12/17 20:46:44;;;;;;;20.75;11.45;;;;;;;-6.87;100.00;99658.94;15282366;19;20070;-54
2022/12/17 20:52:08;;;;;;;16.50;11.35;;;;;;;-6.91;100.00;99661.63;15280032;19;20102;-53
2022/12/17 20:57:35;;;;;;;17.15;10.88;;;;;;;-6.97;100.00;99658.22;15280952;19;20074;-50
2022/12/17 21:03:00;;;;;;;19.20;11.20;;;;;;;-7.01;100.00;99667.00;15279730;19;20017;-56
2022/12/17 21:08:24;;;;;;;17.40;11.57;;;;;;;-7.05;100.00;99672.31;15276695;19;20074;-54
2022/12/17 21:13:52;;;;;;;18.95;12.20;;;;;;;-7.11;100.00;99673.25;15265934;19;20086;-51
2022/12/17 21:19:20;;;;;;;18.75;11.90;;;;;;;-7.13;100.00;99675.91;15272851;19;20019;-52
2022/12/17 21:24:45;;;;;;;20.25;13.00;;;;;;;-7.16;100.00;99670.69;15278017;19;20027;-52
2022/12/17 21:30:14;;;;;;;18.40;11.88;;;;;;;-7.18;100.00;99692.56;15276673;19;20025;-52
2022/12/17 21:35:38;;;;;;;21.00;12.63;;;;;;;-7.20;100.00;99696.94;15277271;19;20014;-52
2022/12/17 21:41:06;;;;;;;21.45;13.00;;;;;;;-7.21;100.00;99710.94;15265868;19;20073;-54
2022/12/17 21:46:35;;;;;;;20.67;12.48;;;;;;;-7.26;100.00;99703.13;15283632;19;20011;-54
2022/12/17 21:52:07;;;;;;;20.08;11.73;;;;;;;-7.31;100.00;99702.28;15291696;19;20014;-51
2022/12/17 21:57:31;;;;;;;20.92;11.98;;;;;;;-7.33;100.00;99717.16;15292625;19;20350;-50
2022/12/17 22:02:59;;;;;;;14.82;10.18;;;;;;;-7.39;100.00;99712.84;15291338;19;20390;-52
2022/12/17 22:08:23;;;;;;;13.63;9.57;;;;;;;-7.46;100.00;99708.56;15292552;19;20515;-51
2022/12/17 22:19:36;;;;;;;14.43;9.00;;;;;;;-7.55;100.00;99706.91;15290303;19;20058;-52
2022/12/17 22:25:01;;;;;;;15.50;9.77;;;;;;;-7.59;100.00;99716.56;15291190;19;20078;-50
2022/12/17 22:36:11;;;;;;;16.50;10.40;;;;;;;-7.60;100.00;99724.44;15293962;19;20086;-51
2022/12/17 22:47:52;;;;;;;15.50;9.80;;;;;;;-7.64;100.00;99734.03;15285298;19;20514;-52
2022/12/17 22:53:19;;;;;;;20.08;10.80;;;;;;;-7.67;100.00;99736.72;15289598;19;20009;-53
2022/12/17 22:58:45;;;;;;;15.55;9.88;;;;;;;-7.69;100.00;99742.81;15287990;19;20086;-50
2022/12/17 23:04:13;;;;;;;16.35;11.00;;;;;;;-7.72;100.00;99758.56;15288948;19;20730;-51
2022/12/17 23:09:40;;;;;;;15.10;10.27;;;;;;;-7.77;100.00;99748.16;15288804;19;20018;-50
2022/12/17 23:15:05;;;;;;;20.58;10.70;;;;;;;-7.81;100.00;99754.28;15280281;19;20015;-54
2022/12/17 23:20:31;;;;;;;17.25;10.70;;;;;;;-7.85;100.00;99761.28;15279602;19;20014;-51
2022/12/17 23:25:59;;;;;;;14.80;10.07;;;;;;;-7.90;100.00;99758.72;15288651;19;20018;-54
2022/12/17 23:31:27;;;;;;;16.13;10.75;;;;;;;-7.96;100.00;99758.75;15287276;19;20834;-51
2022/12/17 23:36:52;;;;;;;13.45;9.90;;;;;;;-8.02;100.00;99742.22;15289244;19;20014;-51
2022/12/17 23:42:20;;;;;;;14.82;10.18;;;;;;;-8.10;100.00;99751.00;15288557;19;20374;-51
2022/12/17 23:47:44;;;;;;;16.42;10.57;;;;;;;-8.15;100.00;99759.78;15279899;19;20327;-50
2022/12/17 23:53:09;;;;;;;16.08;10.82;;;;;;;-8.21;100.00;99755.44;15277673;19;20467;-52
2022/12/17 23:58:36;;;;;;;19.88;11.10;;;;;;;-8.22;100.00;99751.94;15285938;19;20014;-51
